Coolidge, Arizona
Current Conditions -  °F | °C
As of 1:35 PM on Saturday 25 Oct 2014 (Local Time) from KCGZ Reporting Station
Clear Clear  
Wind Chill: 93°   Ceiling: Unl
Heat Index: 93°   Visibility: 10mi
Dew Point: 48°   Wind: 3mph
Humidity: 21%   Direction: 90°E
Pressure: 29.97"   Gusts: NA
Location:  32.98°N, 111.52°W
Report Text: KCGZ 252035Z AUTO 09003KT 10SM CLR 34/09 A2997 RMK AO1
Loading
Personal Weather Stations






























Interactive Weather Map
Tropical Storm Tracking
New forecast layout! Learn more

10-Day Weather Forecast

Advertisements
Track Severe Weather on mobile